Portada
METAR-TAF:

METAR-TAF

Aeropuertos :

Aeropuerto Internacional de Kuwait

Ciudad de Kuwait, Kuwait

latitud: 29-13N, longitud: 047-59E, altitud: 55 m

Observación

El informe se hizo hace 43 minutos, a las 01:00 UTC
Viento 6 kt del noroeste
Temperatura 16°C
Humedad 88%
Presión 1019 hPa
Visibilidad 10 km o más
sin nubes por debajo de 1500 m y sin presencia de cumulonimbus.

METAR: OKBK 190100Z 32006KT CAVOK 16/14 Q1019 NOSIG

Hora: 04:43 (01:43 UTC)

Pronóstico

El informe se hizo hace 2 horas y 58 minutos, a las 22:45 UTC
Pronóstico válido del 19 a las 00 UTC al 20 a las 06 UTC
Viento 10 kt del norte-noroeste
Visibilidad: 7000 m
Temporalmente
del 19 a las 02 UTC al 19 a las 06 UTC
Viento 3 kt con dirección variable
Visibilidad: 3000 m
neblina

TAF: OKBK 182245Z 1900/2006 34010KT 7000 NSC TEMPO 1902/1906 VRB03KT 3000 BR

Observaciones y pronósticos meteorológicos de más de 4000 aeropuertos (mensajes METAR y TAF).

Los puntos amarillos y rojos representan las estaciones disponibles.

Ponga el ratón en el punto deseado para ver el nombre de la estación.

Haga clic para ver las observaciones y los pronósticos meteorológicos.

Para cambiar el mapa : haga clic en los botones verdes con una cruz de color negro para hacer un zoom, en el botón verde con un guión para alejar o en las flechas verdes para mapas adyacentes.


METAR-TAF: